sensor_id;sensor_type;location;lat;lon;timestamp;P1;durP1;ratioP1;P2;durP2;ratioP2
42670;SDS011;28283;55.426;37.756;2023-07-24T00:04:57;2.27;;;2.17;;
42670;SDS011;28283;55.426;37.756;2023-07-24T00:09:58;2.95;;;2.30;;
42670;SDS011;28283;55.426;37.756;2023-07-24T00:14:59;3.03;;;2.60;;
42670;SDS011;28283;55.426;37.756;2023-07-24T00:20:00;2.53;;;2.33;;
42670;SDS011;28283;55.426;37.756;2023-07-24T00:25:00;3.05;;;1.60;;
42670;SDS011;28283;55.426;37.756;2023-07-24T00:30:01;2.80;;;2.45;;
42670;SDS011;28283;55.426;37.756;2023-07-24T00:35:01;4.55;;;2.40;;
42670;SDS011;28283;55.426;37.756;2023-07-24T00:40:02;3.78;;;1.70;;
42670;SDS011;28283;55.426;37.756;2023-07-24T00:45:04;2.08;;;1.95;;
42670;SDS011;28283;55.426;37.756;2023-07-24T00:50:05;2.20;;;2.03;;
42670;SDS011;28283;55.426;37.756;2023-07-24T00:55:06;2.75;;;2.28;;
42670;SDS011;28283;55.426;37.756;2023-07-24T01:00:08;2.95;;;1.95;;
42670;SDS011;28283;55.426;37.756;2023-07-24T01:05:09;2.97;;;1.92;;
42670;SDS011;28283;55.426;37.756;2023-07-24T01:10:13;1.98;;;1.85;;
42670;SDS011;28283;55.426;37.756;2023-07-24T01:15:22;2.60;;;2.38;;
42670;SDS011;28283;55.426;37.756;2023-07-24T01:20:31;2.80;;;1.70;;
42670;SDS011;28283;55.426;37.756;2023-07-24T01:25:53;7.70;;;2.22;;
42670;SDS011;28283;55.426;37.756;2023-07-24T01:30:56;2.83;;;2.30;;
42670;SDS011;28283;55.426;37.756;2023-07-24T01:35:58;4.55;;;2.20;;
42670;SDS011;28283;55.426;37.756;2023-07-24T01:40:59;2.40;;;2.20;;
42670;SDS011;28283;55.426;37.756;2023-07-24T01:46:01;2.67;;;2.22;;
42670;SDS011;28283;55.426;37.756;2023-07-24T01:51:01;5.38;;;3.15;;
42670;SDS011;28283;55.426;37.756;2023-07-24T01:56:02;2.03;;;1.93;;
42670;SDS011;28283;55.426;37.756;2023-07-24T02:01:03;5.38;;;2.50;;
42670;SDS011;28283;55.426;37.756;2023-07-24T02:06:03;4.15;;;2.20;;
42670;SDS011;28283;55.426;37.756;2023-07-24T02:11:04;3.08;;;2.17;;
42670;SDS011;28283;55.426;37.756;2023-07-24T02:16:05;3.72;;;2.22;;
42670;SDS011;28283;55.426;37.756;2023-07-24T02:21:05;1.80;;;1.70;;
42670;SDS011;28283;55.426;37.756;2023-07-24T02:26:06;5.32;;;1.60;;
42670;SDS011;28283;55.426;37.756;2023-07-24T02:31:07;1.88;;;1.70;;
42670;SDS011;28283;55.426;37.756;2023-07-24T02:36:08;3.22;;;2.42;;
42670;SDS011;28283;55.426;37.756;2023-07-24T02:41:09;3.53;;;2.15;;
42670;SDS011;28283;55.426;37.756;2023-07-24T02:46:09;4.07;;;1.77;;
42670;SDS011;28283;55.426;37.756;2023-07-24T02:51:10;3.40;;;1.97;;
42670;SDS011;28283;55.426;37.756;2023-07-24T02:56:10;3.55;;;1.88;;
42670;SDS011;28283;55.426;37.756;2023-07-24T03:01:11;2.80;;;2.08;;
42670;SDS011;28283;55.426;37.756;2023-07-24T03:06:14;4.53;;;2.00;;
42670;SDS011;28283;55.426;37.756;2023-07-24T03:11:15;3.72;;;1.45;;
42670;SDS011;28283;55.426;37.756;2023-07-24T03:16:16;3.75;;;2.00;;
42670;SDS011;28283;55.426;37.756;2023-07-24T03:21:22;3.08;;;1.70;;
42670;SDS011;28283;55.426;37.756;2023-07-24T03:26:23;1.85;;;1.67;;
42670;SDS011;28283;55.426;37.756;2023-07-24T03:31:24;1.97;;;1.87;;
42670;SDS011;28283;55.426;37.756;2023-07-24T03:36:24;2.07;;;1.63;;
42670;SDS011;28283;55.426;37.756;2023-07-24T03:41:25;4.93;;;1.60;;
42670;SDS011;28283;55.426;37.756;2023-07-24T03:46:25;2.15;;;1.92;;
42670;SDS011;28283;55.426;37.756;2023-07-24T03:51:26;4.70;;;2.00;;
42670;SDS011;28283;55.426;37.756;2023-07-24T03:56:27;2.13;;;1.40;;
42670;SDS011;28283;55.426;37.756;2023-07-24T04:01:27;2.45;;;1.48;;
42670;SDS011;28283;55.426;37.756;2023-07-24T04:06:28;5.22;;;1.60;;
42670;SDS011;28283;55.426;37.756;2023-07-24T04:11:29;1.23;;;1.20;;
42670;SDS011;28283;55.426;37.756;2023-07-24T04:16:29;2.38;;;1.55;;
42670;SDS011;28283;55.426;37.756;2023-07-24T04:21:30;3.90;;;0.95;;
42670;SDS011;28283;55.426;37.756;2023-07-24T04:26:31;2.63;;;1.02;;
42670;SDS011;28283;55.426;37.756;2023-07-24T04:31:31;1.95;;;1.13;;
42670;SDS011;28283;55.426;37.756;2023-07-24T04:36:32;2.03;;;1.23;;
42670;SDS011;28283;55.426;37.756;2023-07-24T04:41:32;2.47;;;1.52;;
42670;SDS011;28283;55.426;37.756;2023-07-24T04:46:33;1.40;;;1.30;;
42670;SDS011;28283;55.426;37.756;2023-07-24T04:51:34;1.07;;;0.80;;
42670;SDS011;28283;55.426;37.756;2023-07-24T04:56:34;4.22;;;0.80;;
42670;SDS011;28283;55.426;37.756;2023-07-24T05:01:35;2.75;;;1.50;;
42670;SDS011;28283;55.426;37.756;2023-07-24T05:06:35;2.42;;;0.77;;
42670;SDS011;28283;55.426;37.756;2023-07-24T05:11:38;3.72;;;1.33;;
42670;SDS011;28283;55.426;37.756;2023-07-24T05:21:40;2.97;;;1.23;;
42670;SDS011;28283;55.426;37.756;2023-07-24T05:26:40;0.63;;;0.50;;
42670;SDS011;28283;55.426;37.756;2023-07-24T05:31:41;1.10;;;0.80;;
42670;SDS011;28283;55.426;37.756;2023-07-24T05:36:42;1.15;;;0.70;;
42670;SDS011;28283;55.426;37.756;2023-07-24T05:41:43;2.58;;;0.60;;
42670;SDS011;28283;55.426;37.756;2023-07-24T05:46:44;2.00;;;0.70;;
42670;SDS011;28283;55.426;37.756;2023-07-24T05:51:44;2.95;;;0.88;;
42670;SDS011;28283;55.426;37.756;2023-07-24T06:01:45;4.28;;;0.60;;
42670;SDS011;28283;55.426;37.756;2023-07-24T06:11:46;1.02;;;0.80;;
42670;SDS011;28283;55.426;37.756;2023-07-24T06:21:47;1.13;;;0.50;;
42670;SDS011;28283;55.426;37.756;2023-07-24T06:31:48;2.45;;;0.52;;
42670;SDS011;28283;55.426;37.756;2023-07-24T06:36:49;2.45;;;0.30;;
42670;SDS011;28283;55.426;37.756;2023-07-24T06:46:53;1.05;;;0.43;;
42670;SDS011;28283;55.426;37.756;2023-07-24T06:56:54;0.55;;;0.55;;
42670;SDS011;28283;55.426;37.756;2023-07-24T07:06:55;1.13;;;0.50;;
42670;SDS011;28283;55.426;37.756;2023-07-24T07:16:57;2.80;;;0.40;;
42670;SDS011;28283;55.426;37.756;2023-07-24T07:26:58;0.90;;;0.30;;
42670;SDS011;28283;55.426;37.756;2023-07-24T07:36:59;2.10;;;0.50;;
42670;SDS011;28283;55.426;37.756;2023-07-24T07:47:00;0.95;;;0.60;;
42670;SDS011;28283;55.426;37.756;2023-07-24T07:57:01;2.53;;;0.60;;
42670;SDS011;28283;55.426;37.756;2023-07-24T08:02:01;0.80;;;0.73;;
42670;SDS011;28283;55.426;37.756;2023-07-24T08:12:03;1.10;;;0.65;;
42670;SDS011;28283;55.426;37.756;2023-07-24T08:17:04;1.02;;;0.63;;
42670;SDS011;28283;55.426;37.756;2023-07-24T08:27:05;1.67;;;0.60;;
42670;SDS011;28283;55.426;37.756;2023-07-24T08:37:07;2.25;;;1.13;;
42670;SDS011;28283;55.426;37.756;2023-07-24T08:47:12;3.42;;;0.90;;
42670;SDS011;28283;55.426;37.756;2023-07-24T08:52:13;2.03;;;0.93;;
42670;SDS011;28283;55.426;37.756;2023-07-24T08:57:14;3.38;;;1.00;;
42670;SDS011;28283;55.426;37.756;2023-07-24T09:02:15;2.60;;;0.80;;
42670;SDS011;28283;55.426;37.756;2023-07-24T09:07:16;5.38;;;0.90;;
42670;SDS011;28283;55.426;37.756;2023-07-24T09:12:17;0.90;;;0.90;;
42670;SDS011;28283;55.426;37.756;2023-07-24T09:17:18;1.08;;;0.82;;
42670;SDS011;28283;55.426;37.756;2023-07-24T09:22:18;1.23;;;1.10;;
42670;SDS011;28283;55.426;37.756;2023-07-24T09:27:20;3.08;;;0.80;;
42670;SDS011;28283;55.426;37.756;2023-07-24T09:32:25;2.63;;;0.77;;
42670;SDS011;28283;55.426;37.756;2023-07-24T09:37:30;2.22;;;0.82;;
42670;SDS011;28283;55.426;37.756;2023-07-24T09:42:34;2.95;;;0.60;;
42670;SDS011;28283;55.426;37.756;2023-07-24T09:47:36;1.58;;;0.95;;
42670;SDS011;28283;55.426;37.756;2023-07-24T09:52:40;2.47;;;0.90;;
42670;SDS011;28283;55.426;37.756;2023-07-24T09:57:42;1.30;;;0.88;;
42670;SDS011;28283;55.426;37.756;2023-07-24T10:02:44;1.08;;;1.00;;
42670;SDS011;28283;55.426;37.756;2023-07-24T10:12:47;1.15;;;0.82;;
42670;SDS011;28283;55.426;37.756;2023-07-24T10:17:49;2.15;;;1.13;;
42670;SDS011;28283;55.426;37.756;2023-07-24T10:22:50;3.13;;;0.85;;
42670;SDS011;28283;55.426;37.756;2023-07-24T10:32:52;2.00;;;1.08;;
42670;SDS011;28283;55.426;37.756;2023-07-24T10:37:59;2.17;;;1.05;;
42670;SDS011;28283;55.426;37.756;2023-07-24T10:43:11;1.08;;;0.95;;
42670;SDS011;28283;55.426;37.756;2023-07-24T10:48:13;2.53;;;1.10;;
42670;SDS011;28283;55.426;37.756;2023-07-24T10:53:14;1.75;;;1.30;;
42670;SDS011;28283;55.426;37.756;2023-07-24T10:58:19;3.17;;;1.63;;
42670;SDS011;28283;55.426;37.756;2023-07-24T11:03:20;3.75;;;1.77;;
42670;SDS011;28283;55.426;37.756;2023-07-24T11:13:25;2.57;;;1.93;;
42670;SDS011;28283;55.426;37.756;2023-07-24T11:18:27;1.45;;;1.27;;
42670;SDS011;28283;55.426;37.756;2023-07-24T11:23:28;3.22;;;1.50;;
42670;SDS011;28283;55.426;37.756;2023-07-24T11:28:29;4.47;;;1.35;;
42670;SDS011;28283;55.426;37.756;2023-07-24T11:33:39;2.75;;;1.60;;
42670;SDS011;28283;55.426;37.756;2023-07-24T11:38:40;4.50;;;1.52;;
42670;SDS011;28283;55.426;37.756;2023-07-24T11:43:47;3.17;;;1.65;;
42670;SDS011;28283;55.426;37.756;2023-07-24T11:48:49;3.67;;;1.83;;
42670;SDS011;28283;55.426;37.756;2023-07-24T11:54:03;2.10;;;1.90;;
42670;SDS011;28283;55.426;37.756;2023-07-24T11:59:10;3.42;;;1.75;;
42670;SDS011;28283;55.426;37.756;2023-07-24T12:04:11;4.90;;;2.05;;
42670;SDS011;28283;55.426;37.756;2023-07-24T12:09:13;2.78;;;2.58;;
42670;SDS011;28283;55.426;37.756;2023-07-24T12:14:14;3.88;;;2.30;;
42670;SDS011;28283;55.426;37.756;2023-07-24T12:19:17;3.72;;;2.33;;
42670;SDS011;28283;55.426;37.756;2023-07-24T12:24:17;2.75;;;2.30;;
42670;SDS011;28283;55.426;37.756;2023-07-24T12:29:18;2.75;;;2.60;;
42670;SDS011;28283;55.426;37.756;2023-07-24T12:34:19;3.67;;;2.80;;
42670;SDS011;28283;55.426;37.756;2023-07-24T12:39:19;4.33;;;2.57;;
42670;SDS011;28283;55.426;37.756;2023-07-24T12:44:20;6.03;;;2.47;;
42670;SDS011;28283;55.426;37.756;2023-07-24T12:49:21;3.83;;;2.55;;
42670;SDS011;28283;55.426;37.756;2023-07-24T12:54:21;3.88;;;3.22;;
42670;SDS011;28283;55.426;37.756;2023-07-24T13:04:23;6.47;;;3.50;;
42670;SDS011;28283;55.426;37.756;2023-07-24T13:09:24;3.08;;;2.78;;
42670;SDS011;28283;55.426;37.756;2023-07-24T13:14:25;2.60;;;2.47;;
42670;SDS011;28283;55.426;37.756;2023-07-24T13:19:25;3.28;;;2.97;;
42670;SDS011;28283;55.426;37.756;2023-07-24T13:24:26;3.28;;;2.90;;
42670;SDS011;28283;55.426;37.756;2023-07-24T13:29:26;3.25;;;3.05;;
42670;SDS011;28283;55.426;37.756;2023-07-24T13:34:27;5.70;;;3.00;;
42670;SDS011;28283;55.426;37.756;2023-07-24T13:39:28;4.03;;;3.67;;
42670;SDS011;28283;55.426;37.756;2023-07-24T13:44:29;5.88;;;3.80;;
42670;SDS011;28283;55.426;37.756;2023-07-24T13:49:30;4.63;;;3.67;;
42670;SDS011;28283;55.426;37.756;2023-07-24T13:54:30;5.53;;;3.15;;
42670;SDS011;28283;55.426;37.756;2023-07-24T13:59:31;3.00;;;2.80;;
42670;SDS011;28283;55.426;37.756;2023-07-24T14:04:31;4.38;;;3.85;;
42670;SDS011;28283;55.426;37.756;2023-07-24T14:09:32;3.50;;;3.20;;
42670;SDS011;28283;55.426;37.756;2023-07-24T14:14:34;5.85;;;3.55;;
42670;SDS011;28283;55.426;37.756;2023-07-24T14:19:35;4.68;;;3.70;;
42670;SDS011;28283;55.426;37.756;2023-07-24T14:29:37;4.10;;;2.77;;
42670;SDS011;28283;55.426;37.756;2023-07-24T14:34:38;3.92;;;2.25;;
42670;SDS011;28283;55.426;37.756;2023-07-24T14:44:40;4.07;;;2.63;;
42670;SDS011;28283;55.426;37.756;2023-07-24T14:54:41;2.75;;;2.50;;
42670;SDS011;28283;55.426;37.756;2023-07-24T15:04:42;3.78;;;2.85;;
42670;SDS011;28283;55.426;37.756;2023-07-24T15:09:43;3.40;;;2.97;;
42670;SDS011;28283;55.426;37.756;2023-07-24T15:19:44;4.75;;;2.80;;
42670;SDS011;28283;55.426;37.756;2023-07-24T15:29:46;2.90;;;2.70;;
42670;SDS011;28283;55.426;37.756;2023-07-24T15:34:47;2.97;;;2.20;;
42670;SDS011;28283;55.426;37.756;2023-07-24T15:39:47;5.15;;;2.70;;
42670;SDS011;28283;55.426;37.756;2023-07-24T15:49:49;4.60;;;2.50;;
42670;SDS011;28283;55.426;37.756;2023-07-24T15:59:50;4.63;;;2.75;;
42670;SDS011;28283;55.426;37.756;2023-07-24T16:09:54;5.57;;;3.13;;
42670;SDS011;28283;55.426;37.756;2023-07-24T16:19:55;3.00;;;2.45;;
42670;SDS011;28283;55.426;37.756;2023-07-24T16:29:57;2.30;;;2.10;;
42670;SDS011;28283;55.426;37.756;2023-07-24T16:39:58;4.40;;;3.00;;
42670;SDS011;28283;55.426;37.756;2023-07-24T16:44:59;4.00;;;2.38;;
42670;SDS011;28283;55.426;37.756;2023-07-24T16:55:00;2.95;;;2.75;;
42670;SDS011;28283;55.426;37.756;2023-07-24T17:00:02;2.88;;;2.65;;
42670;SDS011;28283;55.426;37.756;2023-07-24T17:05:03;5.45;;;3.50;;
42670;SDS011;28283;55.426;37.756;2023-07-24T17:15:05;3.65;;;3.08;;
42670;SDS011;28283;55.426;37.756;2023-07-24T17:20:06;4.28;;;3.70;;
42670;SDS011;28283;55.426;37.756;2023-07-24T17:25:07;5.15;;;4.25;;
42670;SDS011;28283;55.426;37.756;2023-07-24T17:30:08;3.90;;;3.50;;
42670;SDS011;28283;55.426;37.756;2023-07-24T17:40:09;3.77;;;3.47;;
42670;SDS011;28283;55.426;37.756;2023-07-24T17:45:10;4.55;;;3.58;;
42670;SDS011;28283;55.426;37.756;2023-07-24T17:50:12;4.25;;;3.85;;
42670;SDS011;28283;55.426;37.756;2023-07-24T17:55:13;5.03;;;3.60;;
42670;SDS011;28283;55.426;37.756;2023-07-24T18:00:14;5.75;;;4.38;;
42670;SDS011;28283;55.426;37.756;2023-07-24T18:05:16;5.43;;;4.13;;
42670;SDS011;28283;55.426;37.756;2023-07-24T18:10:16;5.03;;;4.53;;
42670;SDS011;28283;55.426;37.756;2023-07-24T18:15:19;6.20;;;4.63;;
42670;SDS011;28283;55.426;37.756;2023-07-24T18:20:20;4.38;;;4.07;;
42670;SDS011;28283;55.426;37.756;2023-07-24T18:25:21;5.43;;;4.93;;
42670;SDS011;28283;55.426;37.756;2023-07-24T18:35:28;9.02;;;8.07;;
42670;SDS011;28283;55.426;37.756;2023-07-24T18:45:30;5.78;;;5.10;;
42670;SDS011;28283;55.426;37.756;2023-07-24T18:50:31;6.05;;;5.53;;
42670;SDS011;28283;55.426;37.756;2023-07-24T18:55:31;6.75;;;6.15;;
42670;SDS011;28283;55.426;37.756;2023-07-24T19:00:32;7.10;;;5.60;;
42670;SDS011;28283;55.426;37.756;2023-07-24T19:05:33;7.55;;;5.97;;
42670;SDS011;28283;55.426;37.756;2023-07-24T19:10:34;9.38;;;5.43;;
42670;SDS011;28283;55.426;37.756;2023-07-24T19:15:35;9.02;;;6.07;;
42670;SDS011;28283;55.426;37.756;2023-07-24T19:25:36;9.17;;;5.60;;
42670;SDS011;28283;55.426;37.756;2023-07-24T19:30:37;7.17;;;5.83;;
42670;SDS011;28283;55.426;37.756;2023-07-24T19:35:37;10.32;;;5.43;;
42670;SDS011;28283;55.426;37.756;2023-07-24T19:40:38;12.17;;;5.87;;
42670;SDS011;28283;55.426;37.756;2023-07-24T19:45:38;6.10;;;5.60;;
42670;SDS011;28283;55.426;37.756;2023-07-24T19:50:45;7.43;;;5.57;;
42670;SDS011;28283;55.426;37.756;2023-07-24T19:55:47;7.43;;;6.28;;
42670;SDS011;28283;55.426;37.756;2023-07-24T20:10:57;10.02;;;7.45;;
42670;SDS011;28283;55.426;37.756;2023-07-24T20:16:00;8.02;;;7.22;;
42670;SDS011;28283;55.426;37.756;2023-07-24T20:21:01;7.03;;;6.40;;
42670;SDS011;28283;55.426;37.756;2023-07-24T20:26:02;6.88;;;6.30;;
42670;SDS011;28283;55.426;37.756;2023-07-24T20:31:02;7.97;;;6.68;;
42670;SDS011;28283;55.426;37.756;2023-07-24T20:36:07;12.88;;;6.63;;
42670;SDS011;28283;55.426;37.756;2023-07-24T20:41:09;7.35;;;6.38;;
42670;SDS011;28283;55.426;37.756;2023-07-24T20:46:11;8.30;;;6.43;;
42670;SDS011;28283;55.426;37.756;2023-07-24T20:51:14;11.25;;;6.22;;
42670;SDS011;28283;55.426;37.756;2023-07-24T20:56:15;7.70;;;6.47;;
42670;SDS011;28283;55.426;37.756;2023-07-24T21:01:17;6.47;;;5.75;;
42670;SDS011;28283;55.426;37.756;2023-07-24T21:06:17;7.57;;;6.22;;
42670;SDS011;28283;55.426;37.756;2023-07-24T21:11:18;6.32;;;5.70;;
42670;SDS011;28283;55.426;37.756;2023-07-24T21:16:19;10.32;;;5.70;;
42670;SDS011;28283;55.426;37.756;2023-07-24T21:21:20;6.57;;;5.90;;
42670;SDS011;28283;55.426;37.756;2023-07-24T21:26:20;6.20;;;5.60;;
42670;SDS011;28283;55.426;37.756;2023-07-24T21:31:21;5.93;;;5.32;;
42670;SDS011;28283;55.426;37.756;2023-07-24T21:36:21;7.80;;;6.43;;
42670;SDS011;28283;55.426;37.756;2023-07-24T21:41:22;6.20;;;5.70;;
42670;SDS011;28283;55.426;37.756;2023-07-24T21:46:22;7.35;;;6.20;;
42670;SDS011;28283;55.426;37.756;2023-07-24T21:51:23;7.38;;;6.22;;
42670;SDS011;28283;55.426;37.756;2023-07-24T21:56:24;9.88;;;6.18;;
42670;SDS011;28283;55.426;37.756;2023-07-24T22:01:24;7.57;;;6.65;;
42670;SDS011;28283;55.426;37.756;2023-07-24T22:06:25;7.43;;;6.47;;
42670;SDS011;28283;55.426;37.756;2023-07-24T22:11:26;6.83;;;6.17;;
42670;SDS011;28283;55.426;37.756;2023-07-24T22:16:27;7.55;;;5.93;;
42670;SDS011;28283;55.426;37.756;2023-07-24T22:21:28;6.40;;;5.80;;
42670;SDS011;28283;55.426;37.756;2023-07-24T22:26:29;6.43;;;5.75;;
42670;SDS011;28283;55.426;37.756;2023-07-24T22:31:30;6.80;;;5.93;;
42670;SDS011;28283;55.426;37.756;2023-07-24T22:36:31;9.27;;;6.95;;
42670;SDS011;28283;55.426;37.756;2023-07-24T22:41:31;6.18;;;5.68;;
42670;SDS011;28283;55.426;37.756;2023-07-24T22:46:32;6.47;;;5.88;;
42670;SDS011;28283;55.426;37.756;2023-07-24T22:51:33;5.85;;;5.32;;
42670;SDS011;28283;55.426;37.756;2023-07-24T22:56:33;6.93;;;6.32;;
42670;SDS011;28283;55.426;37.756;2023-07-24T23:01:34;6.47;;;5.88;;
42670;SDS011;28283;55.426;37.756;2023-07-24T23:06:34;6.15;;;5.65;;
42670;SDS011;28283;55.426;37.756;2023-07-24T23:11:35;7.68;;;6.07;;
42670;SDS011;28283;55.426;37.756;2023-07-24T23:16:36;7.10;;;6.40;;
42670;SDS011;28283;55.426;37.756;2023-07-24T23:21:38;7.05;;;6.43;;
42670;SDS011;28283;55.426;37.756;2023-07-24T23:26:39;7.57;;;6.15;;
42670;SDS011;28283;55.426;37.756;2023-07-24T23:31:39;7.07;;;6.47;;
42670;SDS011;28283;55.426;37.756;2023-07-24T23:36:40;5.90;;;5.40;;
42670;SDS011;28283;55.426;37.756;2023-07-24T23:41:41;5.10;;;4.70;;
42670;SDS011;28283;55.426;37.756;2023-07-24T23:46:41;6.10;;;5.50;;
42670;SDS011;28283;55.426;37.756;2023-07-24T23:51:43;5.57;;;4.90;;
42670;SDS011;28283;55.426;37.756;2023-07-24T23:56:43;7.03;;;5.45;;
